createdAt,value
2022-08-22T00:02:20.831Z,15.10
2022-08-22T00:03:06.743Z,15.70
2022-08-22T00:03:08.634Z,15.20
2022-08-22T00:03:10.106Z,16.10
2022-08-22T00:06:03.455Z,15.20
2022-08-22T00:09:36.528Z,15.20
2022-08-22T00:12:51.108Z,15.10
2022-08-22T00:16:09.324Z,15.00
2022-08-22T00:19:40.550Z,14.90
2022-08-22T00:23:05.858Z,14.90
2022-08-22T00:26:45.115Z,14.80
2022-08-22T00:29:57.326Z,14.70
2022-08-22T00:33:23.119Z,14.70
2022-08-22T00:36:54.711Z,14.50
2022-08-22T00:40:29.947Z,14.20
2022-08-22T00:43:39.622Z,14.20
2022-08-22T00:47:16.066Z,14.30
2022-08-22T00:50:22.710Z,14.70
2022-08-22T00:54:01.575Z,15.00
2022-08-22T00:57:49.087Z,14.90
2022-08-22T01:01:00.732Z,14.80
2022-08-22T01:04:31.727Z,14.60
2022-08-22T01:07:55.898Z,14.50
2022-08-22T01:11:33.060Z,14.40
2022-08-22T01:14:51.971Z,14.40
2022-08-22T01:18:42.242Z,14.20
2022-08-22T01:22:42.097Z,14.20
2022-08-22T01:26:14.620Z,14.20
2022-08-22T01:29:58.514Z,14.20
2022-08-22T01:33:58.674Z,14.10
2022-08-22T01:37:43.791Z,14.10
2022-08-22T01:40:59.996Z,14.10
2022-08-22T01:44:42.442Z,14.10
2022-08-22T01:48:30.093Z,13.90
2022-08-22T01:51:49.580Z,14.00
2022-08-22T01:55:06.592Z,14.00
2022-08-22T01:58:23.403Z,13.90
2022-08-22T02:01:33.378Z,13.80
2022-08-22T02:04:47.393Z,13.80
2022-08-22T02:08:40.776Z,13.90
2022-08-22T02:11:55.985Z,14.00
2022-08-22T02:15:19.751Z,14.00
2022-08-22T02:18:39.318Z,14.00
2022-08-22T02:22:03.766Z,14.10
2022-08-22T02:25:30.414Z,14.10
2022-08-22T02:29:01.316Z,14.20
2022-08-22T02:32:42.040Z,14.00
2022-08-22T02:36:00.246Z,13.80
2022-08-22T02:39:34.206Z,13.70
2022-08-22T02:43:18.192Z,13.60
2022-08-22T02:47:03.931Z,13.60
2022-08-22T02:50:33.623Z,13.50
2022-08-22T02:54:03.442Z,13.50
2022-08-22T02:57:39.368Z,13.70
2022-08-22T03:01:09.567Z,13.80
2022-08-22T03:04:53.147Z,13.90
2022-08-22T03:08:27.395Z,13.90
2022-08-22T03:11:40.385Z,13.90
2022-08-22T03:15:07.111Z,14.00
2022-08-22T03:18:45.056Z,13.90
2022-08-22T03:22:14.868Z,13.80
2022-08-22T03:25:46.078Z,13.80
2022-08-22T03:28:59.870Z,14.00
2022-08-22T03:32:12.918Z,14.00
2022-08-22T03:35:53.913Z,14.00
2022-08-22T03:39:35.631Z,13.90
2022-08-22T03:43:38.390Z,13.90
2022-08-22T03:47:10.523Z,13.80
2022-08-22T03:50:54.521Z,13.70
2022-08-22T03:54:15.056Z,13.60
2022-08-22T03:57:41.588Z,13.40
2022-08-22T04:01:01.312Z,13.40
2022-08-22T04:04:11.407Z,13.40
2022-08-22T04:07:52.203Z,13.50
2022-08-22T04:11:13.967Z,13.40
2022-08-22T04:14:36.204Z,13.40
2022-08-22T04:18:08.364Z,13.40
2022-08-22T04:21:16.721Z,13.40
2022-08-22T04:25:08.050Z,13.50
2022-08-22T04:28:31.330Z,13.60
2022-08-22T04:32:18.976Z,13.50
2022-08-22T04:35:31.346Z,13.20
2022-08-22T04:38:59.805Z,13.20
2022-08-22T04:42:31.665Z,13.20
2022-08-22T04:45:53.121Z,13.40
2022-08-22T04:49:05.156Z,13.50
2022-08-22T04:52:41.061Z,13.60
2022-08-22T04:56:11.605Z,13.60
2022-08-22T04:59:18.563Z,13.60
2022-08-22T05:02:27.731Z,13.60
2022-08-22T05:05:38.879Z,13.50
2022-08-22T05:08:44.027Z,13.40
2022-08-22T05:11:52.532Z,13.50
2022-08-22T05:15:15.008Z,13.70
2022-08-22T05:18:32.308Z,13.80
2022-08-22T05:21:40.019Z,14.00
2022-08-22T05:24:48.625Z,14.10
2022-08-22T05:28:10.794Z,14.20
2022-08-22T05:31:40.676Z,14.40
2022-08-22T05:34:46.776Z,14.60
2022-08-22T05:37:53.755Z,14.70
2022-08-22T05:41:05.558Z,14.90
2022-08-22T05:44:22.773Z,15.10
2022-08-22T05:47:49.412Z,15.20
2022-08-22T05:50:58.658Z,15.40
2022-08-22T05:54:33.640Z,15.50
2022-08-22T05:57:47.435Z,15.60
2022-08-22T06:01:00.127Z,15.80
2022-08-22T06:04:37.825Z,15.90
2022-08-22T06:07:49.394Z,15.90
2022-08-22T06:11:01.587Z,16.10
2022-08-22T06:14:38.775Z,16.20
2022-08-22T06:17:49.992Z,16.40
2022-08-22T06:21:00.958Z,16.50
2022-08-22T06:24:05.941Z,16.60
2022-08-22T06:27:17.301Z,16.70
2022-08-22T06:30:20.596Z,16.90
2022-08-22T06:33:29.591Z,17.00
2022-08-22T06:36:34.028Z,17.20
2022-08-22T06:39:42.158Z,17.20
2022-08-22T06:42:51.898Z,17.30
2022-08-22T06:45:53.858Z,17.40
2022-08-22T06:48:57.968Z,17.60
2022-08-22T06:52:25.877Z,17.70
2022-08-22T06:55:30.219Z,17.80
2022-08-22T06:58:41.604Z,17.90
2022-08-22T07:02:15.980Z,18.10
2022-08-22T07:05:26.498Z,18.20
2022-08-22T07:08:38.471Z,18.40
2022-08-22T07:11:42.538Z,18.60
2022-08-22T07:14:50.450Z,18.80
2022-08-22T07:17:59.797Z,18.80
2022-08-22T07:21:08.193Z,18.80
2022-08-22T07:24:17.928Z,18.50
2022-08-22T07:28:00.491Z,18.80
2022-08-22T07:31:25.964Z,18.70
2022-08-22T07:35:08.846Z,19.00
2022-08-22T07:38:25.902Z,19.50
2022-08-22T07:41:46.067Z,19.80
2022-08-22T07:45:02.299Z,19.70
2022-08-22T07:48:30.602Z,20.00
2022-08-22T07:51:47.904Z,20.30
2022-08-22T07:55:23.258Z,20.50
2022-08-22T07:58:29.990Z,20.40
2022-08-22T08:01:31.348Z,20.70
2022-08-22T08:04:40.217Z,20.80
2022-08-22T08:07:46.124Z,20.70
2022-08-22T08:10:51.493Z,20.90
2022-08-22T08:14:03.956Z,21.00
2022-08-22T08:17:31.836Z,20.90
2022-08-22T08:20:36.736Z,21.10
2022-08-22T08:23:46.572Z,21.30
2022-08-22T08:27:18.575Z,21.50
2022-08-22T08:30:26.482Z,21.50
2022-08-22T08:33:32.305Z,21.60
2022-08-22T08:37:12.845Z,21.60
2022-08-22T08:40:31.972Z,21.90
2022-08-22T08:43:59.310Z,22.00
2022-08-22T08:47:21.504Z,22.40
2022-08-22T08:50:51.517Z,22.40
2022-08-22T08:54:21.502Z,22.50
2022-08-22T08:58:22.551Z,22.70
2022-08-22T09:01:35.813Z,23.10
2022-08-22T09:05:14.885Z,23.50
2022-08-22T09:08:56.337Z,23.30
2022-08-22T09:12:15.594Z,23.60
2022-08-22T09:16:07.368Z,24.00
2022-08-22T09:19:49.146Z,24.00
2022-08-22T09:22:50.764Z,24.20
2022-08-22T09:25:58.043Z,24.50
2022-08-22T09:29:28.962Z,24.90
2022-08-22T09:33:07.661Z,24.90
2022-08-22T09:36:26.127Z,24.90
2022-08-22T09:39:49.497Z,25.00
2022-08-22T09:43:29.629Z,25.30
2022-08-22T09:46:52.293Z,25.60
2022-08-22T09:50:17.111Z,25.70
2022-08-22T09:53:24.939Z,26.10
2022-08-22T09:56:53.012Z,26.40
2022-08-22T10:00:22.456Z,26.70
2022-08-22T10:04:03.520Z,27.20
2022-08-22T10:07:38.444Z,27.90
2022-08-22T10:11:24.933Z,28.40
2022-08-22T10:14:55.190Z,28.20
2022-08-22T10:18:19.281Z,28.40
2022-08-22T10:21:37.786Z,28.80
2022-08-22T10:25:13.248Z,28.90
2022-08-22T10:28:43.427Z,29.60
2022-08-22T10:32:01.368Z,29.20
2022-08-22T10:35:27.777Z,29.90
2022-08-22T10:38:49.217Z,30.60
2022-08-22T10:42:18.677Z,30.90
2022-08-22T10:45:46.876Z,30.60
2022-08-22T10:48:59.280Z,31.60
2022-08-22T10:52:19.760Z,31.20
2022-08-22T10:55:28.378Z,31.40
2022-08-22T10:58:36.987Z,31.50
2022-08-22T11:02:01.906Z,31.70
2022-08-22T11:05:50.864Z,31.00
2022-08-22T11:09:05.075Z,30.30
2022-08-22T11:12:41.666Z,30.30
2022-08-22T11:16:06.801Z,30.10
2022-08-22T11:19:41.411Z,30.10
2022-08-22T11:23:32.457Z,30.40
2022-08-22T11:26:46.848Z,30.20
2022-08-22T11:30:18.533Z,30.70
2022-08-22T11:33:53.271Z,31.80
2022-08-22T11:37:44.728Z,32.20
2022-08-22T11:41:06.232Z,31.90
2022-08-22T11:44:25.700Z,31.90
2022-08-22T11:47:36.682Z,32.10
2022-08-22T11:50:48.734Z,31.40
2022-08-22T11:54:12.164Z,32.20
2022-08-22T11:57:36.545Z,32.20
2022-08-22T12:01:17.439Z,32.40
2022-08-22T12:04:47.938Z,32.10
2022-08-22T12:08:12.084Z,32.30
2022-08-22T12:11:26.614Z,32.90
2022-08-22T12:14:43.978Z,31.00
2022-08-22T12:18:32.934Z,31.00
2022-08-22T12:21:43.158Z,32.00
2022-08-22T12:25:05.357Z,32.00
2022-08-22T12:28:56.543Z,32.10
2022-08-22T12:32:22.812Z,33.00
2022-08-22T12:35:29.926Z,33.80
2022-08-22T12:39:00.265Z,33.80
2022-08-22T12:42:51.608Z,32.10
2022-08-22T12:46:16.541Z,32.00
2022-08-22T12:50:13.217Z,32.70
2022-08-22T12:53:45.069Z,32.50
2022-08-22T12:57:27.262Z,34.00
2022-08-22T13:00:42.064Z,34.20
2022-08-22T13:03:53.563Z,33.70
2022-08-22T13:07:31.659Z,32.70
2022-08-22T13:10:52.584Z,33.00
2022-08-22T13:14:00.573Z,32.80
2022-08-22T13:17:25.382Z,32.70
2022-08-22T13:20:34.776Z,33.80
2022-08-22T13:23:42.070Z,33.10
2022-08-22T13:26:54.675Z,33.40
2022-08-22T13:29:59.955Z,33.20
2022-08-22T13:33:22.276Z,33.60
2022-08-22T13:36:24.935Z,33.50
2022-08-22T13:39:41.632Z,33.40
2022-08-22T13:42:54.195Z,33.70
2022-08-22T13:46:01.956Z,33.40
2022-08-22T13:49:10.185Z,33.60
2022-08-22T13:52:33.952Z,34.50
2022-08-22T13:55:50.457Z,34.00
2022-08-22T13:58:59.225Z,33.20
2022-08-22T14:02:15.255Z,33.50
2022-08-22T14:05:44.296Z,33.40
2022-08-22T14:08:47.223Z,33.20
2022-08-22T14:11:59.685Z,33.50
2022-08-22T14:15:07.396Z,33.40
2022-08-22T14:18:15.724Z,33.60
2022-08-22T14:21:40.959Z,34.20
2022-08-22T14:24:46.016Z,33.20
2022-08-22T14:27:50.242Z,33.00
2022-08-22T14:31:13.226Z,34.20
2022-08-22T14:34:15.962Z,33.90
2022-08-22T14:37:35.029Z,32.90
2022-08-22T14:40:42.143Z,33.70
2022-08-22T14:44:01.692Z,35.10
2022-08-22T14:47:48.211Z,34.00
2022-08-22T14:50:39.779Z,34.00
2022-08-22T14:53:44.051Z,36.10
2022-08-22T14:56:49.614Z,36.20
2022-08-22T14:59:53.009Z,36.70
2022-08-22T15:03:07.160Z,36.90
2022-08-22T15:06:32.279Z,36.40
2022-08-22T15:09:43.843Z,36.10
2022-08-22T15:12:58.795Z,35.80
2022-08-22T15:16:05.653Z,36.20
2022-08-22T15:19:33.263Z,35.90
2022-08-22T15:22:36.256Z,35.10
2022-08-22T15:25:42.633Z,35.00
2022-08-22T15:29:04.336Z,34.60
2022-08-22T15:32:06.116Z,34.00
2022-08-22T15:35:12.434Z,33.60
2022-08-22T15:38:36.436Z,33.00
2022-08-22T15:41:51.067Z,33.40
2022-08-22T15:44:55.710Z,33.30
2022-08-22T15:47:59.411Z,33.40
2022-08-22T15:51:10.524Z,32.80
2022-08-22T15:54:24.270Z,32.10
2022-08-22T15:57:40.758Z,32.30
2022-08-22T16:01:04.971Z,32.60
2022-08-22T16:05:04.100Z,32.60
2022-08-22T16:08:14.529Z,32.20
2022-08-22T16:11:33.615Z,31.70
2022-08-22T16:14:35.009Z,31.40
2022-08-22T16:17:45.239Z,31.60
2022-08-22T16:20:55.600Z,30.20
2022-08-22T16:23:56.875Z,30.90
2022-08-22T16:26:58.408Z,30.90
2022-08-22T16:30:11.287Z,31.00
2022-08-22T16:33:29.293Z,30.50
2022-08-22T16:37:02.539Z,30.10
2022-08-22T16:40:05.053Z,30.00
2022-08-22T16:43:16.522Z,29.80
2022-08-22T16:46:36.552Z,30.50
2022-08-22T16:49:50.765Z,30.00
2022-08-22T16:52:53.733Z,29.80
2022-08-22T16:56:22.756Z,29.80
2022-08-22T16:59:41.056Z,29.30
2022-08-22T17:02:56.823Z,29.20
2022-08-22T17:06:41.319Z,28.70
2022-08-22T17:10:17.641Z,28.60
2022-08-22T17:13:48.808Z,28.40
2022-08-22T17:17:05.252Z,28.30
2022-08-22T17:20:27.264Z,27.70
2022-08-22T17:24:32.004Z,27.60
2022-08-22T17:27:43.028Z,27.50
2022-08-22T17:31:31.784Z,26.90
2022-08-22T17:35:17.774Z,26.50
2022-08-22T17:39:02.738Z,26.20
2022-08-22T17:42:45.142Z,26.00
2022-08-22T17:46:04.543Z,25.60
2022-08-22T17:49:12.268Z,25.40
2022-08-22T17:52:37.671Z,25.20
2022-08-22T17:56:07.092Z,25.30
2022-08-22T17:59:27.426Z,25.10
2022-08-22T18:02:50.058Z,25.00
2022-08-22T18:06:01.623Z,24.60
2022-08-22T18:09:19.349Z,24.10
2022-08-22T18:12:39.487Z,23.70
2022-08-22T18:15:58.639Z,23.60
2022-08-22T18:19:33.304Z,23.40
2022-08-22T18:22:55.198Z,23.20
2022-08-22T18:26:36.929Z,23.00
2022-08-22T18:29:58.937Z,22.70
2022-08-22T18:33:12.235Z,22.40
2022-08-22T18:36:30.363Z,22.30
2022-08-22T18:39:53.515Z,22.30
2022-08-22T18:43:17.839Z,22.20
2022-08-22T18:46:37.646Z,22.10
2022-08-22T18:49:44.656Z,22.00
2022-08-22T18:52:46.025Z,21.90
2022-08-22T18:56:17.726Z,21.90
2022-08-22T18:59:56.461Z,21.80
2022-08-22T19:03:28.076Z,21.70
2022-08-22T19:06:51.688Z,21.70
2022-08-22T19:10:46.353Z,21.60
2022-08-22T19:14:25.106Z,21.50
2022-08-22T19:17:59.101Z,21.40
2022-08-22T19:21:44.603Z,21.40
2022-08-22T19:25:16.282Z,21.30
2022-08-22T19:28:17.347Z,21.20
2022-08-22T19:31:42.196Z,21.30
2022-08-22T19:34:47.180Z,21.20
2022-08-22T19:37:59.268Z,21.10
2022-08-22T19:41:00.423Z,21.00
2022-08-22T19:44:01.480Z,21.00
2022-08-22T19:47:13.061Z,20.90
2022-08-22T19:50:16.817Z,20.80
2022-08-22T19:53:34.892Z,20.70
2022-08-22T19:57:27.148Z,20.70
2022-08-22T20:01:00.674Z,20.60
2022-08-22T20:04:24.605Z,20.50
2022-08-22T20:07:37.192Z,20.30
2022-08-22T20:11:14.791Z,20.10
2022-08-22T20:14:30.819Z,20.00
2022-08-22T20:17:32.269Z,19.90
2022-08-22T20:20:56.299Z,19.90
2022-08-22T20:23:57.278Z,19.80
2022-08-22T20:27:17.855Z,19.70
2022-08-22T20:30:37.967Z,19.60
2022-08-22T20:33:46.146Z,19.60
2022-08-22T20:36:59.779Z,19.60
2022-08-22T20:40:55.066Z,19.50
2022-08-22T20:44:03.022Z,19.40
2022-08-22T20:47:11.281Z,19.20
2022-08-22T20:50:12.771Z,19.20
2022-08-22T20:53:20.631Z,19.00
2022-08-22T20:56:48.861Z,19.00
2022-08-22T21:00:13.508Z,18.90
2022-08-22T21:03:44.400Z,18.90
2022-08-22T21:06:45.409Z,18.70
2022-08-22T21:10:22.741Z,18.60
2022-08-22T21:13:37.805Z,18.40
2022-08-22T21:16:38.823Z,18.40
2022-08-22T21:19:39.527Z,18.40
2022-08-22T21:22:40.937Z,18.40
2022-08-22T21:26:07.678Z,18.40
2022-08-22T21:29:23.466Z,18.30
2022-08-22T21:32:42.332Z,18.20
2022-08-22T21:35:43.697Z,18.20
2022-08-22T21:39:12.768Z,18.10
2022-08-22T21:42:41.077Z,18.20
2022-08-22T21:45:44.890Z,18.20
2022-08-22T21:49:04.375Z,18.20
2022-08-22T21:52:05.390Z,18.20
2022-08-22T21:55:26.836Z,18.10
2022-08-22T21:58:36.730Z,17.90
2022-08-22T22:01:38.509Z,17.70
2022-08-22T22:04:43.440Z,17.50
2022-08-22T22:07:47.859Z,17.20
2022-08-22T22:10:51.240Z,17.20
2022-08-22T22:13:52.356Z,17.10
2022-08-22T22:16:53.601Z,17.00
2022-08-22T22:19:54.611Z,17.00
2022-08-22T22:22:55.929Z,17.00
2022-08-22T22:26:01.361Z,16.90
2022-08-22T22:29:03.936Z,17.00
2022-08-22T22:32:05.079Z,16.90
2022-08-22T22:35:07.134Z,16.60
2022-08-22T22:38:09.263Z,16.40
2022-08-22T22:41:10.388Z,16.40
2022-08-22T22:44:11.608Z,16.70
2022-08-22T22:47:13.628Z,16.80
2022-08-22T22:50:14.734Z,16.70
2022-08-22T22:53:19.371Z,16.60
2022-08-22T22:56:23.843Z,16.60
2022-08-22T22:59:24.914Z,16.50
2022-08-22T23:02:26.677Z,16.40
2022-08-22T23:05:32.168Z,16.50
2022-08-22T23:08:33.031Z,16.40
2022-08-22T23:11:34.259Z,16.20
2022-08-22T23:14:36.063Z,16.20
2022-08-22T23:17:37.761Z,16.20
2022-08-22T23:20:38.863Z,16.20
2022-08-22T23:23:40.450Z,16.20
2022-08-22T23:26:42.204Z,16.20
2022-08-22T23:29:43.508Z,16.20
2022-08-22T23:32:44.499Z,16.30
2022-08-22T23:35:45.341Z,16.10
2022-08-22T23:38:48.963Z,16.00
2022-08-22T23:41:51.039Z,16.00
2022-08-22T23:44:52.496Z,16.00
2022-08-22T23:47:53.553Z,15.80
2022-08-22T23:50:54.579Z,15.60
2022-08-22T23:53:59.369Z,15.60
2022-08-22T23:57:11.828Z,15.70
